Kandilousa — SYIF — position and weather

sailwx.info

Track history (hours):
 
Tides and Currents Weather Stations Pressure Air Temp Water Temp Dewpoint Dewpoint Depression Visibility Wind Speed Wind Dir Waves Ship Positions

Kandilousa

Last reported at 2014-Aug-22 04:30 UTC. Time now 2014-Aug-22 08:00 UTC.
Position N 34°25' W 075°02'.

Length 183 m; draft 8.1 m.

Type: Tanker. MMSI: 239354000.

Date/timePositionNaut miles runAvg speedWind from/ knotsBaromVisibWave heightAir tempDewpointWater temp
2014-Aug-22 04:30N 34°25' W 075°02'1311.4
2014-Aug-22 03:24N 34°36' W 074°55'8610.4
2014-Aug-21 19:08N 35°52' W 074°05'7 8.6
2014-Aug-21 18:16N 35°59' W 074°01'6 8.5
2014-Aug-21 17:31N 36°05' W 073°59'1111.0
2014-Aug-21 16:33N 36°16' W 073°60'1513.0
2014-Aug-21 15:23N 36°31' W 073°60'1713.3
2014-Aug-21 14:06N 36°48' W 074°01'813.2
2014-Aug-21 13:28N 36°56' W 074°01'1213.3
2014-Aug-21 12:33N 37°08' W 074°00'1313.0
2014-Aug-21 11:33N 37°22' W 074°00'1312.7
2014-Aug-21 10:33N 37°34' W 074°00'1212.2
2014-Aug-21 09:33N 37°46' W 074°00'1212.4
2014-Aug-21 08:33N 37°59' W 074°00'1312.7
2014-Aug-21 07:33N 38°11' W 073°59'1312.6
2014-Aug-21 06:33N 38°24' W 073°59'1312.7
2014-Aug-21 05:33N 38°36' W 073°58'1312.6
2014-Aug-21 04:33N 38°49' W 073°57'1312.6
2014-Aug-21 03:32N 39°02' W 073°56'1312.8
2014-Aug-21 02:33N 39°15' W 073°55'1312.7
2014-Aug-21 01:33N 39°27' W 073°54'1312.6
2014-Aug-21 00:33N 39°40' W 073°54'1212.4
2014-Aug-20 23:33N 39°52' W 073°52'1312.5
2014-Aug-20 22:33N 40°05' W 073°51'1312.6
2014-Aug-20 21:33N 40°17' W 073°49'1111.0
2014-Aug-20 20:33N 40°28' W 073°52'1110.7
2014-Aug-20 19:33N 40°35' W 074°02'5 4.7
2014-Aug-20 18:33N 40°39' W 074°06'0 0.0
2014-Aug-20 12:33N 40°39' W 074°06'0 0.0
2014-Aug-20 11:33N 40°39' W 074°06'0 0.0
2014-Aug-20 09:27N 40°39' W 074°06'0 0.0
2014-Aug-20 06:12N 40°39' W 074°06'0 0.0
2014-Aug-20 05:27N 40°39' W 074°06'0 0.0
2014-Aug-20 03:30N 40°39' W 074°06'0 0.0
2014-Aug-20 02:33N 40°39' W 074°06'0 0.0
2014-Aug-20 01:09N 40°39' W 074°06'0 0.0
2014-Aug-19 20:34N 40°39' W 074°06'0 0.4
2014-Aug-19 19:34N 40°39' W 074°06'5 5.2
2014-Aug-19 18:34N 40°34' W 074°02'1010.0
2014-Aug-19 17:33N 40°28' W 073°52'1010.1
2014-Aug-19 16:32N 40°28' W 073°38'2 2.2
2014-Aug-19 15:33N 40°29' W 073°36'0 0.0
2014-Aug-19 14:33N 40°29' W 073°36'0 0.1
2014-Aug-19 13:34N 40°29' W 073°36'4 4.0
2014-Aug-19 12:34N 40°28' W 073°31'9 9.4
2014-Aug-19 11:34N 40°29' W 073°18'1211.7
2014-Aug-19 10:34N 40°30' W 073°03'1212.1
2014-Aug-19 09:34N 40°31' W 072°47'1212.1
2014-Aug-19 08:34N 40°31' W 072°31'1212.0
2014-Aug-19 07:34N 40°31' W 072°15'1211.9
2014-Aug-19 06:34N 40°31' W 071°60'1211.8
2014-Aug-19 05:33N 40°32' W 071°44'1211.7
2014-Aug-19 04:34N 40°32' W 071°29'1212.1
2014-Aug-19 03:33N 40°32' W 071°13'1111.5
2014-Aug-19 02:34N 40°33' W 070°58'1110.8
2014-Aug-19 01:33N 40°33' W 070°44'1211.7
2014-Aug-19 00:34N 40°34' W 070°28'1211.6
2014-Aug-18 23:34N 40°34' W 070°13'1211.5
2014-Aug-18 22:34N 40°34' W 069°58'1212.0
2014-Aug-18 21:33N 40°34' W 069°42'1312.0
2014-Aug-18 20:30N 40°35' W 069°25'1211.8
2014-Aug-18 19:30N 40°36' W 069°10'1312.1
2014-Aug-18 18:26N 40°38' W 068°53'1412.6
2014-Aug-18 17:20N 40°39' W 068°35'  
2014-Aug-13 03:31N 39°10' W 069°02'1211.6
2014-Aug-13 02:32N 39°10' W 069°17'1111.7
2014-Aug-13 01:33N 39°10' W 069°32'1211.6
2014-Aug-13 00:33N 39°10' W 069°47'1211.7
2014-Aug-12 23:33N 39°11' W 070°02'1312.2
2014-Aug-12 22:31N 39°10' W 070°18'1111.9
2014-Aug-12 21:33N 39°10' W 070°33'1212.0
2014-Aug-12 20:33N 39°10' W 070°48'1212.0
2014-Aug-12 19:33N 39°10' W 071°04'1212.0
2014-Aug-12 18:33N 39°11' W 071°19'1212.0
2014-Aug-12 17:31N 39°10' W 071°35'1111.9
2014-Aug-12 16:33N 39°10' W 071°50'1212.3
2014-Aug-12 15:33N 39°09' W 072°06'1212.1
2014-Aug-12 14:33N 39°07' W 072°21'1211.8
2014-Aug-12 13:33N 39°04' W 072°36'1212.5
2014-Aug-12 12:33N 39°02' W 072°52'1212.3
2014-Aug-12 11:33N 38°59' W 073°07'1212.0
2014-Aug-12 10:33N 38°57' W 073°22'1212.1
2014-Aug-12 09:33N 38°54' W 073°38'1211.9
2014-Aug-12 08:33N 38°52' W 073°53'1211.9
2014-Aug-12 07:33N 38°50' W 074°08'1212.2
2014-Aug-12 06:33N 38°47' W 074°23'1212.4
2014-Aug-12 05:33N 38°46' W 074°39'1313.0
2014-Aug-12 04:33N 38°46' W 074°55'  
Track history (hours):
 
Tides and Currents Weather Stations Pressure Air Temp Water Temp Dewpoint Dewpoint Depression Visibility Wind Speed Wind Dir Waves Ship Positions

Kandilousa

Last reported at 2014-Aug-22 04:30 UTC. Time now 2014-Aug-22 08:00 UTC.
Position N 34°25' W 075°02'.

Length 183 m; draft 8.1 m.

Type: Tanker. MMSI: 239354000.

Date/timePositionNaut miles runAvg speedWind from/ knotsBaromVisibWave heightAir tempDewpointWater temp
2014-Aug-22 04:30N 34°25' W 075°02'1311.4
2014-Aug-22 03:24N 34°36' W 074°55'8610.4
2014-Aug-21 19:08N 35°52' W 074°05'7 8.6
2014-Aug-21 18:16N 35°59' W 074°01'6 8.5
2014-Aug-21 17:31N 36°05' W 073°59'1111.0
2014-Aug-21 16:33N 36°16' W 073°60'1513.0
2014-Aug-21 15:23N 36°31' W 073°60'1713.3
2014-Aug-21 14:06N 36°48' W 074°01'813.2
2014-Aug-21 13:28N 36°56' W 074°01'1213.3
2014-Aug-21 12:33N 37°08' W 074°00'1313.0
2014-Aug-21 11:33N 37°22' W 074°00'1312.7
2014-Aug-21 10:33N 37°34' W 074°00'1212.2
2014-Aug-21 09:33N 37°46' W 074°00'1212.4
2014-Aug-21 08:33N 37°59' W 074°00'1312.7
2014-Aug-21 07:33N 38°11' W 073°59'1312.6
2014-Aug-21 06:33N 38°24' W 073°59'1312.7
2014-Aug-21 05:33N 38°36' W 073°58'1312.6
2014-Aug-21 04:33N 38°49' W 073°57'1312.6
2014-Aug-21 03:32N 39°02' W 073°56'1312.8
2014-Aug-21 02:33N 39°15' W 073°55'1312.7
2014-Aug-21 01:33N 39°27' W 073°54'1312.6
2014-Aug-21 00:33N 39°40' W 073°54'1212.4
2014-Aug-20 23:33N 39°52' W 073°52'1312.5
2014-Aug-20 22:33N 40°05' W 073°51'1312.6
2014-Aug-20 21:33N 40°17' W 073°49'1111.0
2014-Aug-20 20:33N 40°28' W 073°52'1110.7
2014-Aug-20 19:33N 40°35' W 074°02'5 4.7
2014-Aug-20 18:33N 40°39' W 074°06'0 0.0
2014-Aug-20 12:33N 40°39' W 074°06'0 0.0
2014-Aug-20 11:33N 40°39' W 074°06'0 0.0
2014-Aug-20 09:27N 40°39' W 074°06'0 0.0
2014-Aug-20 06:12N 40°39' W 074°06'0 0.0
2014-Aug-20 05:27N 40°39' W 074°06'0 0.0
2014-Aug-20 03:30N 40°39' W 074°06'0 0.0
2014-Aug-20 02:33N 40°39' W 074°06'0 0.0
2014-Aug-20 01:09N 40°39' W 074°06'0 0.0
2014-Aug-19 20:34N 40°39' W 074°06'0 0.4
2014-Aug-19 19:34N 40°39' W 074°06'5 5.2
2014-Aug-19 18:34N 40°34' W 074°02'1010.0
2014-Aug-19 17:33N 40°28' W 073°52'1010.1
2014-Aug-19 16:32N 40°28' W 073°38'2 2.2
2014-Aug-19 15:33N 40°29' W 073°36'0 0.0
2014-Aug-19 14:33N 40°29' W 073°36'0 0.1
2014-Aug-19 13:34N 40°29' W 073°36'4 4.0
2014-Aug-19 12:34N 40°28' W 073°31'9 9.4
2014-Aug-19 11:34N 40°29' W 073°18'1211.7
2014-Aug-19 10:34N 40°30' W 073°03'1212.1
2014-Aug-19 09:34N 40°31' W 072°47'1212.1
2014-Aug-19 08:34N 40°31' W 072°31'1212.0
2014-Aug-19 07:34N 40°31' W 072°15'1211.9
2014-Aug-19 06:34N 40°31' W 071°60'1211.8
2014-Aug-19 05:33N 40°32' W 071°44'1211.7
2014-Aug-19 04:34N 40°32' W 071°29'1212.1
2014-Aug-19 03:33N 40°32' W 071°13'1111.5
2014-Aug-19 02:34N 40°33' W 070°58'1110.8
2014-Aug-19 01:33N 40°33' W 070°44'1211.7
2014-Aug-19 00:34N 40°34' W 070°28'1211.6
2014-Aug-18 23:34N 40°34' W 070°13'1211.5
2014-Aug-18 22:34N 40°34' W 069°58'1212.0
2014-Aug-18 21:33N 40°34' W 069°42'1312.0
2014-Aug-18 20:30N 40°35' W 069°25'1211.8
2014-Aug-18 19:30N 40°36' W 069°10'1312.1
2014-Aug-18 18:26N 40°38' W 068°53'1412.6
2014-Aug-18 17:20N 40°39' W 068°35'  
2014-Aug-13 03:31N 39°10' W 069°02'1211.6
2014-Aug-13 02:32N 39°10' W 069°17'1111.7
2014-Aug-13 01:33N 39°10' W 069°32'1211.6
2014-Aug-13 00:33N 39°10' W 069°47'1211.7
2014-Aug-12 23:33N 39°11' W 070°02'1312.2
2014-Aug-12 22:31N 39°10' W 070°18'1111.9
2014-Aug-12 21:33N 39°10' W 070°33'1212.0
2014-Aug-12 20:33N 39°10' W 070°48'1212.0
2014-Aug-12 19:33N 39°10' W 071°04'1212.0
2014-Aug-12 18:33N 39°11' W 071°19'1212.0
2014-Aug-12 17:31N 39°10' W 071°35'1111.9
2014-Aug-12 16:33N 39°10' W 071°50'1212.3
2014-Aug-12 15:33N 39°09' W 072°06'1212.1
2014-Aug-12 14:33N 39°07' W 072°21'1211.8
2014-Aug-12 13:33N 39°04' W 072°36'1212.5
2014-Aug-12 12:33N 39°02' W 072°52'1212.3
2014-Aug-12 11:33N 38°59' W 073°07'1212.0
2014-Aug-12 10:33N 38°57' W 073°22'1212.1
2014-Aug-12 09:33N 38°54' W 073°38'1211.9
2014-Aug-12 08:33N 38°52' W 073°53'1211.9
2014-Aug-12 07:33N 38°50' W 074°08'1212.2
2014-Aug-12 06:33N 38°47' W 074°23'1212.4
2014-Aug-12 05:33N 38°46' W 074°39'1313.0
2014-Aug-12 04:33N 38°46' W 074°55'  

Dump ship's entire track history